Time;durP1;ratioP1;P1;durP2;ratioP2;P2;SDS_P1;SDS_P2;PMS_P1;PMS_P2;Temp;Humidity;BMP_temperature;BMP_pressure;BME280_temperature;BME280_humidity;BME280_pressure;Samples;Min_cycle;Max_cycle;Signal;HPM_P1;HPM_P2
2021/03/08 00:00:45;;;;;;;;;;;;;;;0.76;65.80;99193.95;1746440;82;20177;-81
2021/03/08 00:03:14;;;;;;;;;;;;;;;0.76;66.15;99183.18;1738603;81;20217;-79
2021/03/08 00:05:42;;;;;;;;;;;;;;;0.76;66.06;99181.83;1745346;82;20185;-80
2021/03/08 00:08:10;;;;;;;;;;;;;;;0.76;65.79;99173.21;1705921;83;20191;-80
2021/03/08 00:10:38;;;;;;;;;;;;;;;0.75;65.70;99176.13;1716117;84;20200;-82
2021/03/08 00:13:05;;;;;;;;;;;;;;;0.75;65.82;99176.13;1687151;81;20239;-72
2021/03/08 00:15:33;;;;;;;;;;;;;;;0.74;65.69;99178.50;1715724;84;20468;-72
2021/03/08 00:18:01;;;;;;;;;;;;;;;0.73;65.69;99178.20;1715997;81;20686;-81
2021/03/08 00:20:28;;;;;;;;;;;;;;;0.72;65.80;99169.30;1731071;81;20500;-73
2021/03/08 00:22:56;;;;;;;;;;;;;;;0.72;65.71;99171.16;1732049;83;20179;-81
2021/03/08 00:25:28;;;;;;;;;;;;;;;0.73;65.56;99162.05;1742071;81;20185;-80
2021/03/08 00:27:55;;;;;;;;;;;;;;;0.73;65.74;99167.44;1714932;82;20185;-71
2021/03/08 00:30:23;;;;;;;;;;;;;;;0.73;65.52;99145.89;1715142;81;20249;-72
2021/03/08 00:32:51;;;;;;;;;;;;;;;0.75;65.54;99154.58;1725081;82;20279;-81
2021/03/08 00:35:19;;;;;;;;;;;;;;;0.74;65.69;99150.22;1716156;81;20168;-81
2021/03/08 00:37:47;;;;;;;;;;;;;;;0.75;65.77;99150.55;1715490;84;20176;-80
2021/03/08 00:40:17;;;;;;;;;;;;;;;0.73;66.00;99144.55;1716031;81;20537;-81
2021/03/08 00:42:45;;;;;;;;;;;;;;;0.72;65.78;99146.92;1716137;84;20200;-72
2021/03/08 00:45:16;;;;;;;;;;;;;;;0.70;65.69;99138.23;1712630;81;20245;-81
2021/03/08 00:47:44;;;;;;;;;;;;;;;0.73;65.88;99141.86;1703636;83;20210;-72
2021/03/08 00:50:26;;;;;;;;;;;;;;;0.73;65.87;99147.24;1708976;81;20191;-80
2021/03/08 00:52:55;;;;;;;;;;;;;;;0.73;65.78;99136.47;1716679;83;20229;-72
2021/03/08 00:55:25;;;;;;;;;;;;;;;0.73;65.94;99138.65;1710562;81;20180;-72
2021/03/08 00:57:53;;;;;;;;;;;;;;;0.72;65.51;99138.33;1716563;83;20216;-82
2021/03/08 01:00:25;;;;;;;;;;;;;;;0.74;65.64;99132.72;1716663;83;20258;-75
2021/03/08 01:02:56;;;;;;;;;;;;;;;0.72;65.88;99132.94;1745303;81;20185;-72
2021/03/08 01:05:26;;;;;;;;;;;;;;;0.70;65.59;99126.95;1745308;82;20541;-80
2021/03/08 01:07:55;;;;;;;;;;;;;;;0.71;65.65;99129.12;1740215;82;20546;-77
2021/03/08 01:10:26;;;;;;;;;;;;;;;0.71;65.94;99117.81;1745633;82;20237;-76
2021/03/08 01:12:54;;;;;;;;;;;;;;;0.72;65.62;99120.83;1743912;81;20214;-70
2021/03/08 01:15:22;;;;;;;;;;;;;;;0.72;65.43;99119.99;1745562;82;20177;-78
2021/03/08 01:17:51;;;;;;;;;;;;;;;0.73;65.60;99114.92;1744146;81;20186;-79
2021/03/08 01:20:19;;;;;;;;;;;;;;;0.74;65.44;99109.83;1745222;82;20193;-80
2021/03/08 01:22:47;;;;;;;;;;;;;;;0.74;65.22;99109.83;1741230;81;20204;-80
2021/03/08 01:25:18;;;;;;;;;;;;;;;0.74;65.41;99108.48;1739566;82;20185;-79
2021/03/08 01:27:46;;;;;;;;;;;;;;;0.74;65.48;99103.92;1727798;81;20260;-72
2021/03/08 01:30:17;;;;;;;;;;;;;;;0.75;65.44;99095.34;1738289;82;20273;-71
2021/03/08 01:32:44;;;;;;;;;;;;;;;0.76;65.63;99098.34;1737007;81;20171;-82
2021/03/08 01:35:12;;;;;;;;;;;;;;;0.74;65.39;99106.63;1737145;83;20175;-81
2021/03/08 01:37:40;;;;;;;;;;;;;;;0.76;65.33;99099.15;1736235;81;20178;-82
2021/03/08 01:40:10;;;;;;;;;;;;;;;0.75;65.28;99096.17;1745761;82;20182;-72
2021/03/08 01:42:38;;;;;;;;;;;;;;;0.75;65.40;99096.69;1745631;82;20185;-81
2021/03/08 01:45:09;;;;;;;;;;;;;;;0.74;65.25;99097.71;1743562;81;20197;-72
2021/03/08 01:47:37;;;;;;;;;;;;;;;0.73;64.96;99092.87;1744510;82;20252;-70
2021/03/08 01:50:06;;;;;;;;;;;;;;;0.74;65.14;99101.23;1734293;81;20287;-76
2021/03/08 01:52:34;;;;;;;;;;;;;;;0.73;65.11;99089.34;1722488;81;20247;-69
2021/03/08 01:55:02;;;;;;;;;;;;;;;0.73;65.33;99086.14;1714962;81;20194;-70
2021/03/08 01:57:29;;;;;;;;;;;;;;;0.75;65.11;99085.91;1709573;84;20208;-71
2021/03/08 01:59:59;;;;;;;;;;;;;;;0.73;65.25;99088.83;1715147;81;20506;-77
2021/03/08 02:02:26;;;;;;;;;;;;;;;0.73;65.02;99090.69;1715889;83;20203;-77
2021/03/08 02:04:54;;;;;;;;;;;;;;;0.72;65.18;99087.16;1711125;81;20203;-72
2021/03/08 02:07:22;;;;;;;;;;;;;;;0.73;65.15;99092.03;1715697;84;20521;-71
2021/03/08 02:09:50;;;;;;;;;;;;;;;0.72;65.17;99086.33;1717460;81;20525;-70
2021/03/08 02:12:23;;;;;;;;;;;;;;;0.72;65.17;99087.16;1718690;83;20489;-77
2021/03/08 02:15:18;;;;;;;;;;;;;;;0.72;65.17;99078.25;1722730;81;20209;-70
2021/03/08 02:17:59;;;;;;;;;;;;;;;0.73;65.47;99086.66;1716240;81;20165;-70
2021/03/08 02:20:49;;;;;;;;;;;;;;;0.73;65.29;99083.95;1738659;81;20201;-71
2021/03/08 02:23:27;;;;;;;;;;;;;;;0.74;65.24;99089.62;1721458;82;20188;-77
2021/03/08 02:26:21;;;;;;;;;;;;;;;0.73;65.40;99086.66;1741870;81;20221;-74
2021/03/08 02:29:10;;;;;;;;;;;;;;;0.73;65.39;99085.30;1723611;81;20224;-83
2021/03/08 02:31:37;;;;;;;;;;;;;;;0.73;65.59;99090.17;1733262;81;20204;-83
2021/03/08 02:34:10;;;;;;;;;;;;;;;0.74;65.84;99088.28;1745876;82;20188;-78
2021/03/08 02:36:46;;;;;;;;;;;;;;;0.73;65.70;99085.30;1734754;81;20498;-72
2021/03/08 02:39:18;;;;;;;;;;;;;;;0.71;65.43;99076.62;1721518;83;20191;-78
2021/03/08 02:41:47;;;;;;;;;;;;;;;0.71;65.40;99076.08;1721219;81;20203;-83
2021/03/08 02:44:15;;;;;;;;;;;;;;;0.72;65.67;99078.25;1732429;82;20282;-77
2021/03/08 02:46:45;;;;;;;;;;;;;;;0.69;65.62;99066.55;1734972;81;20177;-77
2021/03/08 02:49:16;;;;;;;;;;;;;;;0.69;65.62;99078.67;1721497;83;20268;-78
2021/03/08 02:51:50;;;;;;;;;;;;;;;0.69;65.78;99072.77;1721021;81;20191;-71
2021/03/08 02:54:18;;;;;;;;;;;;;;;0.68;65.73;99079.73;1709343;84;20212;-75
2021/03/08 02:56:47;;;;;;;;;;;;;;;0.69;65.91;99080.86;1733637;82;20201;-78
2021/03/08 02:59:16;;;;;;;;;;;;;;;0.66;65.76;99063.77;1696270;82;20337;-83
2021/03/08 03:01:44;;;;;;;;;;;;;;;0.67;65.74;99070.83;1722843;83;20596;-77
2021/03/08 03:04:12;;;;;;;;;;;;;;;0.67;65.83;99061.91;1730067;81;20218;-78
2021/03/08 03:06:39;;;;;;;;;;;;;;;0.65;65.83;99068.87;1742176;82;20509;-83
2021/03/08 03:09:10;;;;;;;;;;;;;;;0.65;66.02;99062.14;1741552;79;20249;-84
2021/03/08 03:11:40;;;;;;;;;;;;;;;0.64;65.78;99069.38;1741526;82;20220;-83
2021/03/08 03:14:08;;;;;;;;;;;;;;;0.63;65.86;99059.64;1734078;81;20251;-79
2021/03/08 03:16:35;;;;;;;;;;;;;;;0.66;66.05;99068.36;1721628;83;20549;-72
2021/03/08 03:19:03;;;;;;;;;;;;;;;0.63;65.88;99070.41;1725352;81;20181;-72
2021/03/08 03:21:33;;;;;;;;;;;;;;;0.66;65.92;99061.63;1751093;82;20181;-71
2021/03/08 03:24:06;;;;;;;;;;;;;;;0.67;66.00;99069.98;1733365;81;20227;-80
2021/03/08 03:26:34;;;;;;;;;;;;;;;0.68;66.24;99072.48;1721379;83;20315;-80
2021/03/08 03:29:02;;;;;;;;;;;;;;;0.69;66.35;99070.59;1724599;81;20822;-80
2021/03/08 03:31:32;;;;;;;;;;;;;;;0.70;66.25;99065.53;1752622;80;20293;-81
2021/03/08 03:34:00;;;;;;;;;;;;;;;0.72;66.59;99067.48;1735148;81;20561;-76
2021/03/08 03:36:29;;;;;;;;;;;;;;;0.71;66.26;99072.03;1698706;82;20586;-80
2021/03/08 03:38:57;;;;;;;;;;;;;;;0.72;66.31;99072.87;1752126;82;20399;-80
2021/03/08 03:41:25;;;;;;;;;;;;;;;0.71;66.56;99074.73;1698181;82;20152;-79
2021/03/08 03:43:52;;;;;;;;;;;;;;;0.70;66.48;99069.05;1730810;82;20251;-79
2021/03/08 03:46:20;;;;;;;;;;;;;;;0.70;66.69;99069.05;1722344;81;20207;-77
2021/03/08 03:48:47;;;;;;;;;;;;;;;0.68;66.66;99064.41;1739857;82;20169;-78
2021/03/08 03:51:15;;;;;;;;;;;;;;;0.67;66.63;99064.60;1712236;82;20196;-80
2021/03/08 03:53:43;;;;;;;;;;;;;;;0.65;66.96;99066.17;1736298;83;20601;-81
2021/03/08 03:56:11;;;;;;;;;;;;;;;0.62;66.91;99063.39;1742372;81;20518;-79
2021/03/08 03:58:47;;;;;;;;;;;;;;;0.61;67.10;99063.08;1751428;82;20182;-80
2021/03/08 04:01:17;;;;;;;;;;;;;;;0.63;67.30;99059.64;1750035;81;20177;-80
2021/03/08 04:04:04;;;;;;;;;;;;;;;0.62;67.07;99060.70;1751121;82;20194;-81
2021/03/08 04:06:47;;;;;;;;;;;;;;;0.64;67.07;99064.52;1741739;81;20207;-80
2021/03/08 04:09:17;;;;;;;;;;;;;;;0.63;67.12;99062.87;1721764;83;20548;-79
2021/03/08 04:11:45;;;;;;;;;;;;;;;0.62;67.40;99055.31;1694528;83;20214;-80
2021/03/08 04:14:14;;;;;;;;;;;;;;;0.63;67.30;99059.64;1721511;83;20168;-80
2021/03/08 04:16:43;;;;;;;;;;;;;;;0.62;67.67;99059.36;1724454;81;20222;-71
2021/03/08 04:19:10;;;;;;;;;;;;;;;0.62;67.31;99055.31;1741866;82;20220;-80
2021/03/08 04:21:39;;;;;;;;;;;;;;;0.61;67.31;99051.47;1724750;81;20189;-70
2021/03/08 04:24:08;;;;;;;;;;;;;;;0.61;67.36;99055.52;1709084;81;20157;-70
2021/03/08 04:26:36;;;;;;;;;;;;;;;0.62;67.75;99058.01;1716030;82;20237;-81
2021/03/08 04:29:04;;;;;;;;;;;;;;;0.62;67.53;99052.62;1741627;81;20562;-79
2021/03/08 04:31:32;;;;;;;;;;;;;;;0.62;67.44;99045.89;1741260;82;20192;-72
2021/03/08 04:34:01;;;;;;;;;;;;;;;0.62;67.65;99051.79;1747623;82;20194;-72
2021/03/08 04:36:28;;;;;;;;;;;;;;;0.61;67.32;99042.88;1751156;82;20602;-72
2021/03/08 04:38:56;;;;;;;;;;;;;;;0.62;67.45;99043.71;1734088;81;20216;-71
2021/03/08 04:41:28;;;;;;;;;;;;;;;0.62;67.68;99035.13;1721869;83;20251;-72
2021/03/08 04:43:58;;;;;;;;;;;;;;;0.62;67.38;99045.06;1721072;81;20247;-78
2021/03/08 04:46:26;;;;;;;;;;;;;;;0.62;67.56;99039.67;1720850;83;20255;-80
2021/03/08 04:48:54;;;;;;;;;;;;;;;0.57;67.69;99047.05;1721949;81;20264;-72
2021/03/08 04:51:21;;;;;;;;;;;;;;;0.57;67.76;99038.98;1735929;82;20567;-74
2021/03/08 04:53:49;;;;;;;;;;;;;;;0.59;68.13;99043.63;1750325;81;20384;-72
2021/03/08 04:56:18;;;;;;;;;;;;;;;0.59;67.76;99042.28;1746842;82;20337;-72
2021/03/08 04:58:46;;;;;;;;;;;;;;;0.60;67.96;99044.45;1750192;81;20503;-73
2021/03/08 05:05:43;;;;;;;;;;;;;;;0.63;67.97;99054.25;1743822;81;20532;-71
2021/03/08 05:08:12;;;;;;;;;;;;;;;0.62;67.92;99054.48;1732067;82;20228;-73
2021/03/08 05:10:39;;;;;;;;;;;;;;;0.62;68.28;99055.31;1709054;81;20256;-79
2021/03/08 05:13:08;;;;;;;;;;;;;;;0.63;68.00;99054.25;1708840;84;20197;-71
2021/03/08 05:15:36;;;;;;;;;;;;;;;0.62;68.05;99053.97;1714351;81;20244;-72
2021/03/08 05:18:04;;;;;;;;;;;;;;;0.64;68.28;99053.23;1721449;83;20183;-79
2021/03/08 05:20:32;;;;;;;;;;;;;;;0.64;68.10;99050.53;1724622;81;20252;-73
2021/03/08 05:23:00;;;;;;;;;;;;;;;0.70;68.32;99050.72;1732496;81;20231;-81
2021/03/08 05:25:28;;;;;;;;;;;;;;;0.72;68.42;99048.12;1720831;81;20187;-82
2021/03/08 05:27:56;;;;;;;;;;;;;;;0.75;68.08;99055.77;1732751;82;20188;-74
2021/03/08 05:30:24;;;;;;;;;;;;;;;0.78;68.05;99050.48;1749374;81;20184;-74
2021/03/08 05:33:03;;;;;;;;;;;;;;;0.80;67.75;99057.81;1718934;82;20234;-73
2021/03/08 05:35:32;;;;;;;;;;;;;;;0.79;67.92;99057.50;1721448;83;20188;-79
2021/03/08 05:37:59;;;;;;;;;;;;;;;0.82;67.81;99067.84;1718075;81;20191;-78
2021/03/08 05:40:36;;;;;;;;;;;;;;;0.84;67.90;99065.75;1721801;81;20219;-79
2021/03/08 05:43:09;;;;;;;;;;;;;;;0.88;67.98;99063.79;1726464;81;20496;-78
2021/03/08 05:45:55;;;;;;;;;;;;;;;0.93;67.75;99059.09;1726467;82;20191;-72
2021/03/08 05:48:25;;;;;;;;;;;;;;;0.94;67.44;99068.30;1722815;81;20216;-72
2021/03/08 05:51:17;;;;;;;;;;;;;;;0.91;67.27;99064.68;1727446;82;20496;-72
2021/03/08 05:54:09;;;;;;;;;;;;;;;0.94;67.52;99070.16;1725031;81;20245;-79
2021/03/08 05:57:07;;;;;;;;;;;;;;;0.95;67.22;99063.73;1731478;82;20265;-78
2021/03/08 05:59:57;;;;;;;;;;;;;;;0.98;67.24;99076.27;1654634;83;20475;-73
2021/03/08 06:02:53;;;;;;;;;;;;;;;1.00;67.30;99073.34;1673607;81;20173;-73
2021/03/08 06:05:47;;;;;;;;;;;;;;;1.02;67.19;99076.64;1735227;82;20576;-78
2021/03/08 06:08:19;;;;;;;;;;;;;;;1.03;66.99;99079.66;1720313;81;20257;-72
2021/03/08 06:10:50;;;;;;;;;;;;;;;1.07;66.97;99082.21;1717478;82;20401;-79
2021/03/08 06:13:18;;;;;;;;;;;;;;;1.09;67.07;99080.95;1699380;81;20524;-73
2021/03/08 06:15:52;;;;;;;;;;;;;;;1.13;67.11;99080.84;1680852;84;20173;-79
2021/03/08 06:18:19;;;;;;;;;;;;;;;1.14;66.64;99072.22;1686154;81;20203;-80
2021/03/08 06:20:47;;;;;;;;;;;;;;;1.14;66.63;99070.35;1740380;82;20241;-71
2021/03/08 06:23:14;;;;;;;;;;;;;;;1.16;66.56;99071.50;1729640;81;20807;-85
2021/03/08 06:25:44;;;;;;;;;;;;;;;1.18;66.87;99068.06;1723101;81;20179;-80
2021/03/08 06:28:12;;;;;;;;;;;;;;;1.20;66.40;99076.23;1747162;82;20201;-81
2021/03/08 06:30:40;;;;;;;;;;;;;;;1.22;66.72;99076.84;1728884;81;20251;-74
2021/03/08 06:33:07;;;;;;;;;;;;;;;1.24;66.45;99076.61;1737043;82;20527;-74
2021/03/08 06:35:36;;;;;;;;;;;;;;;1.24;66.41;99065.83;1731597;81;20243;-81
2021/03/08 06:38:03;;;;;;;;;;;;;;;1.27;66.41;99072.13;1705357;82;20189;-71
2021/03/08 06:40:31;;;;;;;;;;;;;;;1.31;66.45;99076.06;1694402;83;20294;-72
2021/03/08 06:42:58;;;;;;;;;;;;;;;1.34;66.10;99070.24;1717814;82;20211;-81
2021/03/08 06:45:26;;;;;;;;;;;;;;;1.34;66.02;99072.94;1726334;81;20236;-80
2021/03/08 06:47:55;;;;;;;;;;;;;;;1.34;66.08;99074.80;1726570;82;20498;-71
2021/03/08 06:50:22;;;;;;;;;;;;;;;1.35;66.30;99076.44;1729431;81;20179;-72
2021/03/08 06:52:50;;;;;;;;;;;;;;;1.36;66.36;99077.59;1743518;82;20181;-73
2021/03/08 06:55:20;;;;;;;;;;;;;;;1.31;65.89;99072.53;1743795;81;20201;-81
2021/03/08 06:57:47;;;;;;;;;;;;;;;1.31;66.35;99066.62;1731359;83;20561;-72
2021/03/08 07:00:15;;;;;;;;;;;;;;;1.33;66.29;99075.32;1731317;83;20214;-72
2021/03/08 07:02:46;;;;;;;;;;;;;;;1.35;66.27;99075.09;1724715;81;20204;-72
2021/03/08 07:05:22;;;;;;;;;;;;;;;1.36;66.07;99073.54;1737544;82;20267;-78
2021/03/08 07:07:52;;;;;;;;;;;;;;;1.34;66.21;99076.16;1716235;81;20246;-77
2021/03/08 07:10:37;;;;;;;;;;;;;;;1.33;66.20;99073.97;1716675;84;20581;-76
2021/03/08 07:13:08;;;;;;;;;;;;;;;1.31;66.25;99077.41;1716612;81;20196;-73
2021/03/08 07:16:00;;;;;;;;;;;;;;;1.32;66.54;99068.27;1716362;84;20251;-70
2021/03/08 07:18:27;;;;;;;;;;;;;;;1.30;66.25;99060.92;1729636;81;20163;-75
2021/03/08 07:21:18;;;;;;;;;;;;;;;1.28;66.70;99060.32;1732387;83;20182;-73
2021/03/08 07:23:48;;;;;;;;;;;;;;;1.27;66.49;99064.05;1718064;81;20498;-71
2021/03/08 07:26:20;;;;;;;;;;;;;;;1.24;66.60;99065.83;1717423;82;20260;-74
2021/03/08 07:29:13;;;;;;;;;;;;;;;1.23;66.59;99060.15;1723387;81;20206;-72
2021/03/08 07:31:44;;;;;;;;;;;;;;;1.23;67.03;99054.77;1722959;82;20197;-73
2021/03/08 07:34:14;;;;;;;;;;;;;;;1.28;66.84;99063.02;1728543;81;20165;-80
2021/03/08 07:36:43;;;;;;;;;;;;;;;1.31;66.98;99059.89;1730710;81;20196;-82
2021/03/08 07:39:18;;;;;;;;;;;;;;;1.27;66.83;99064.05;1717282;81;20611;-74
2021/03/08 07:41:52;;;;;;;;;;;;;;;1.26;67.31;99060.52;1721907;81;20180;-74
2021/03/08 07:44:27;;;;;;;;;;;;;;;1.25;67.22;99064.80;1715853;81;20188;-81
2021/03/08 07:46:55;;;;;;;;;;;;;;;1.23;67.12;99062.84;1718800;83;20191;-83
2021/03/08 07:49:37;;;;;;;;;;;;;;;1.18;67.49;99067.55;1724384;81;20162;-73
2021/03/08 07:52:11;;;;;;;;;;;;;;;1.17;68.11;99069.09;1727273;81;20208;-72
2021/03/08 07:55:00;;;;;;;;;;;;;;;1.20;68.75;99074.05;1711466;83;20330;-72
2021/03/08 07:57:28;;;;;;;;;;;;;;;1.14;68.67;99065.48;1717461;81;20201;-72
2021/03/08 07:59:56;;;;;;;;;;;;;;;1.15;68.56;99064.45;1718283;81;20348;-71
2021/03/08 08:02:25;;;;;;;;;;;;;;;1.14;68.21;99057.39;1695656;82;20185;-71
2021/03/08 08:04:56;;;;;;;;;;;;;;;1.14;68.66;99058.74;1718265;81;20184;-71
2021/03/08 08:07:26;;;;;;;;;;;;;;;1.15;68.52;99055.02;1690845;83;20532;-73
2021/03/08 08:09:53;;;;;;;;;;;;;;;1.12;68.26;99051.41;1723712;81;20324;-75
2021/03/08 08:12:32;;;;;;;;;;;;;;;1.14;68.56;99047.45;1730529;82;20219;-75
2021/03/08 08:15:03;;;;;;;;;;;;;;;1.16;68.98;99041.86;1729510;81;20264;-75
2021/03/08 08:17:35;;;;;;;;;;;;;;;1.18;68.66;99043.81;1721225;81;20188;-79
2021/03/08 08:20:07;;;;;;;;;;;;;;;1.21;68.63;99046.88;1678475;81;20251;-75
2021/03/08 08:22:35;;;;;;;;;;;;;;;1.24;68.63;99040.22;1691134;84;20187;-74
2021/03/08 08:25:04;;;;;;;;;;;;;;;1.26;68.63;99036.81;1726447;81;20208;-73
2021/03/08 08:27:33;;;;;;;;;;;;;;;1.26;68.80;99045.70;1724960;81;20243;-75
2021/03/08 08:30:01;;;;;;;;;;;;;;;1.26;68.98;99044.34;1735656;81;20323;-75
2021/03/08 08:32:48;;;;;;;;;;;;;;;1.25;68.69;99046.76;1728204;81;20228;-76
2021/03/08 08:35:21;;;;;;;;;;;;;;;1.25;68.88;99045.41;1707131;83;20188;-78
2021/03/08 08:38:11;;;;;;;;;;;;;;;1.28;69.33;99053.59;1700678;83;20515;-72
2021/03/08 08:40:42;;;;;;;;;;;;;;;1.27;69.42;99046.02;1726723;81;20213;-74
2021/03/08 08:43:19;;;;;;;;;;;;;;;1.25;69.33;99052.15;1723255;81;20547;-81
2021/03/08 08:45:49;;;;;;;;;;;;;;;1.28;69.69;99055.77;1727037;82;20285;-79
2021/03/08 08:48:17;;;;;;;;;;;;;;;1.32;69.48;99056.13;1724303;81;20678;-81
2021/03/08 08:50:48;;;;;;;;;;;;;;;1.36;69.78;99054.67;1724408;82;20254;-79
2021/03/08 08:53:38;;;;;;;;;;;;;;;1.35;69.03;99054.36;1721010;81;20176;-81
2021/03/08 08:56:08;;;;;;;;;;;;;;;1.34;69.12;99056.77;1700301;82;20196;-87
2021/03/08 08:58:48;;;;;;;;;;;;;;;1.33;69.18;99054.27;1731248;81;20253;-77
2021/03/08 09:01:26;;;;;;;;;;;;;;;1.33;69.19;99055.10;1725548;82;20579;-76
2021/03/08 09:04:07;;;;;;;;;;;;;;;1.34;69.50;99052.72;1692373;82;20499;-80
2021/03/08 09:06:56;;;;;;;;;;;;;;;1.32;69.25;99054.78;1717129;83;20502;-85
2021/03/08 09:09:32;;;;;;;;;;;;;;;1.35;69.37;99061.61;1728066;81;20232;-81
2021/03/08 09:12:05;;;;;;;;;;;;;;;1.37;69.44;99065.73;1730267;82;20176;-81
2021/03/08 09:14:47;;;;;;;;;;;;;;;1.37;69.36;99059.00;1724901;81;20237;-76
2021/03/08 09:17:23;;;;;;;;;;;;;;;1.34;69.51;99062.16;1731423;81;20164;-80
2021/03/08 09:19:59;;;;;;;;;;;;;;;1.33;69.94;99065.89;1724486;81;20184;-78
2021/03/08 09:22:33;;;;;;;;;;;;;;;1.34;70.34;99071.59;1729272;82;20234;-76
2021/03/08 09:25:17;;;;;;;;;;;;;;;1.31;70.20;99067.98;1718802;81;20274;-80
2021/03/08 09:28:03;;;;;;;;;;;;;;;1.33;70.21;99071.27;1733248;82;20180;-81
2021/03/08 09:30:40;;;;;;;;;;;;;;;1.32;70.39;99062.87;1727568;81;20303;-79
2021/03/08 09:33:12;;;;;;;;;;;;;;;1.34;70.36;99068.06;1723143;82;20521;-82
2021/03/08 09:35:49;;;;;;;;;;;;;;;1.32;70.68;99064.77;1718866;81;20263;-78
2021/03/08 09:38:24;;;;;;;;;;;;;;;1.29;71.02;99060.09;1718810;81;20201;-78
2021/03/08 09:40:58;;;;;;;;;;;;;;;1.21;71.23;99059.00;1726757;81;20219;-80
2021/03/08 09:43:31;;;;;;;;;;;;;;;1.19;71.97;99072.39;1724195;81;20546;-81
2021/03/08 09:46:13;;;;;;;;;;;;;;;1.18;72.23;99073.45;1725006;81;20156;-79
2021/03/08 09:48:44;;;;;;;;;;;;;;;1.16;72.58;99076.34;1726736;82;20238;-78
2021/03/08 09:51:15;;;;;;;;;;;;;;;1.21;72.91;99075.72;1703375;82;20172;-83
2021/03/08 09:53:46;;;;;;;;;;;;;;;1.24;73.24;99077.44;1730653;82;20549;-79
2021/03/08 09:56:16;;;;;;;;;;;;;;;1.28;73.99;99077.84;1745364;80;20263;-79
2021/03/08 09:58:45;;;;;;;;;;;;;;;1.28;74.06;99087.28;1743038;82;20181;-74
2021/03/08 10:01:20;;;;;;;;;;;;;;;1.26;74.95;99081.28;1688526;82;20172;-78
2021/03/08 10:03:49;;;;;;;;;;;;;;;1.26;75.47;99079.39;1722985;82;20178;-75
2021/03/08 10:06:27;;;;;;;;;;;;;;;1.21;76.81;99068.98;1717174;82;20523;-76
2021/03/08 10:08:56;;;;;;;;;;;;;;;1.16;77.03;99078.23;1718625;82;20537;-79
2021/03/08 10:11:29;;;;;;;;;;;;;;;1.14;77.37;99077.09;1721047;82;20208;-77
2021/03/08 10:13:59;;;;;;;;;;;;;;;1.16;77.96;99071.50;1731983;82;20242;-81
2021/03/08 10:16:29;;;;;;;;;;;;;;;1.20;78.25;99076.75;1724190;81;20249;-81
2021/03/08 10:19:07;;;;;;;;;;;;;;;1.14;77.99;99062.78;1728548;82;20199;-79
2021/03/08 10:21:42;;;;;;;;;;;;;;;1.11;78.34;99069.98;1726249;81;20239;-80
2021/03/08 10:24:10;;;;;;;;;;;;;;;1.12;78.55;99067.05;1729237;82;20566;-86
2021/03/08 10:26:46;;;;;;;;;;;;;;;1.15;78.51;99072.02;1728852;81;20603;-83
2021/03/08 10:29:14;;;;;;;;;;;;;;;1.18;78.43;99074.28;1730026;81;20177;-79
2021/03/08 10:31:42;;;;;;;;;;;;;;;1.18;78.36;99069.41;1737995;81;20280;-78
2021/03/08 10:34:10;;;;;;;;;;;;;;;1.18;78.21;99066.72;1675074;83;20263;-79
2021/03/08 10:36:39;;;;;;;;;;;;;;;1.10;78.44;99065.62;1728575;82;20216;-76
2021/03/08 10:39:11;;;;;;;;;;;;;;;1.04;78.83;99061.08;1725815;81;20229;-79
2021/03/08 10:41:40;;;;;;;;;;;;;;;1.01;78.83;99052.91;1724735;81;20192;-85
2021/03/08 10:44:10;;;;;;;;;;;;;;;0.98;78.70;99064.66;1734544;81;20203;-80
2021/03/08 10:46:39;;;;;;;;;;;;;;;0.98;78.80;99062.80;1710726;81;20228;-73
2021/03/08 10:49:09;;;;;;;;;;;;;;;1.01;79.30;99057.50;1743520;80;20533;-82
2021/03/08 10:51:41;;;;;;;;;;;;;;;1.07;79.48;99062.00;1721058;82;20501;-75
2021/03/08 10:54:10;;;;;;;;;;;;;;;1.09;79.22;99062.09;1730956;81;20503;-81
2021/03/08 10:56:39;;;;;;;;;;;;;;;1.14;79.40;99065.48;1725885;81;20188;-75
2021/03/08 10:59:26;;;;;;;;;;;;;;;1.18;79.33;99070.24;1733891;81;20165;-80
2021/03/08 11:02:03;;;;;;;;;;;;;;;1.20;79.44;99061.41;1718925;82;20201;-73
2021/03/08 11:04:30;;;;;;;;;;;;;;;1.21;79.84;99063.59;1720366;81;20184;-75
2021/03/08 11:07:00;;;;;;;;;;;;;;;1.21;80.02;99060.34;1717741;81;20176;-82
2021/03/08 11:09:31;;;;;;;;;;;;;;;1.13;80.02;99056.59;1721959;81;20173;-73
2021/03/08 11:11:59;;;;;;;;;;;;;;;1.09;80.04;99063.95;1732097;82;20169;-82
2021/03/08 11:14:27;;;;;;;;;;;;;;;1.08;80.34;99060.97;1718058;81;20189;-75
2021/03/08 11:16:57;;;;;;;;;;;;;;;1.04;80.66;99057.05;1732072;81;20208;-81
2021/03/08 11:19:26;;;;;;;;;;;;;;;1.05;80.31;99056.02;1744326;81;20488;-74
2021/03/08 11:22:04;;;;;;;;;;;;;;;1.06;80.47;99061.17;1727461;81;20366;-75
2021/03/08 11:24:41;;;;;;;;;;;;;;;1.09;80.51;99061.27;1713282;82;20203;-84
2021/03/08 11:27:12;;;;;;;;;;;;;;;1.11;80.40;99064.05;1745317;80;20178;-84
2021/03/08 11:29:42;;;;;;;;;;;;;;;1.10;80.41;99061.06;1716195;83;20198;-80
2021/03/08 11:32:10;;;;;;;;;;;;;;;1.05;81.37;99062.75;1723152;81;20170;-83
2021/03/08 11:34:44;;;;;;;;;;;;;;;1.00;81.87;99056.67;1705844;83;20164;-80
2021/03/08 11:37:14;;;;;;;;;;;;;;;1.00;81.80;99067.96;1739536;80;20246;-83
2021/03/08 11:39:47;;;;;;;;;;;;;;;0.99;81.45;99069.82;1723501;82;20176;-84
2021/03/08 11:42:18;;;;;;;;;;;;;;;0.96;80.99;99065.41;1717126;81;20173;-83
2021/03/08 11:44:46;;;;;;;;;;;;;;;0.95;81.35;99069.13;1688892;82;20256;-77
2021/03/08 11:47:14;;;;;;;;;;;;;;;1.01;81.69;99070.97;1720229;82;20198;-81
2021/03/08 11:49:41;;;;;;;;;;;;;;;0.99;81.16;99070.34;1720831;81;20216;-73
2021/03/08 11:52:10;;;;;;;;;;;;;;;1.00;81.12;99070.14;1719875;81;20184;-73
2021/03/08 11:54:37;;;;;;;;;;;;;;;1.04;81.19;99078.59;1725268;81;20493;-73
2021/03/08 11:57:07;;;;;;;;;;;;;;;1.03;80.89;99079.66;1732992;81;20177;-74
2021/03/08 11:59:36;;;;;;;;;;;;;;;0.98;80.65;99076.27;1726194;82;20551;-73
2021/03/08 12:02:04;;;;;;;;;;;;;;;0.98;80.99;99086.22;1723176;81;20296;-74
2021/03/08 12:04:33;;;;;;;;;;;;;;;0.95;80.41;99075.86;1733224;82;20278;-73
2021/03/08 12:07:01;;;;;;;;;;;;;;;0.92;80.46;99076.28;1724255;81;20277;-75
2021/03/08 12:09:33;;;;;;;;;;;;;;;0.91;80.64;99081.39;1728396;81;20230;-75
2021/03/08 12:11:57;;;;;;;;;;;;;;;0.91;80.70;99081.39;1724673;81;20235;-75
2021/03/08 12:14:25;;;;;;;;;;;;;;;0.89;80.26;99082.10;1721502;81;20188;-75
2021/03/08 12:16:52;;;;;;;;;;;;;;;0.88;80.09;99085.85;1728525;82;20211;-73
2021/03/08 12:19:21;;;;;;;;;;;;;;;0.88;80.25;99080.47;1725532;81;20184;-74
2021/03/08 12:21:49;;;;;;;;;;;;;;;0.89;80.41;99086.97;1729763;81;20262;-81
2021/03/08 12:24:16;;;;;;;;;;;;;;;0.87;80.03;99094.96;1731344;81;20219;-81
2021/03/08 12:26:44;;;;;;;;;;;;;;;0.83;79.92;99099.14;1728852;82;20198;-74
2021/03/08 12:29:11;;;;;;;;;;;;;;;0.80;80.01;99099.56;1720105;81;20584;-72
2021/03/08 12:31:39;;;;;;;;;;;;;;;0.75;80.28;99116.87;1729193;82;20229;-73
2021/03/08 12:34:07;;;;;;;;;;;;;;;0.69;77.37;99104.25;1725359;81;20268;-73
2021/03/08 12:36:35;;;;;;;;;;;;;;;0.62;77.53;99116.41;1726068;82;20187;-82
2021/03/08 12:39:03;;;;;;;;;;;;;;;0.58;76.95;99127.31;1726486;81;20177;-73
2021/03/08 12:41:33;;;;;;;;;;;;;;;0.49;76.49;99113.75;1728118;82;20191;-80
2021/03/08 12:44:01;;;;;;;;;;;;;;;0.41;76.78;99125.58;1726850;82;20575;-79
2021/03/08 12:46:29;;;;;;;;;;;;;;;0.26;77.27;99130.38;1725271;81;20168;-79
2021/03/08 12:48:57;;;;;;;;;;;;;;;0.20;77.88;99134.44;1727936;82;20197;-73
2021/03/08 12:51:25;;;;;;;;;;;;;;;0.16;77.97;99146.63;1732817;81;20217;-82
2021/03/08 12:53:53;;;;;;;;;;;;;;;0.10;78.21;99151.01;1723052;82;20188;-72
2021/03/08 12:56:20;;;;;;;;;;;;;;;0.04;78.59;99151.00;1721995;81;20188;-79
2021/03/08 12:58:48;;;;;;;;;;;;;;;-0.03;78.94;99152.36;1725669;82;20180;-78
2021/03/08 13:01:16;;;;;;;;;;;;;;;-0.05;79.37;99154.40;1729522;81;20193;-78
2021/03/08 13:03:50;;;;;;;;;;;;;;;-0.05;79.47;99155.75;1725137;82;20176;-78
2021/03/08 13:06:20;;;;;;;;;;;;;;;-0.06;79.47;99156.80;1732537;81;20176;-79
2021/03/08 13:08:51;;;;;;;;;;;;;;;-0.10;79.50;99159.57;1702124;82;20185;-79
2021/03/08 13:11:22;;;;;;;;;;;;;;;-0.18;79.03;99159.80;1727695;81;20191;-79
2021/03/08 13:13:51;;;;;;;;;;;;;;;-0.24;78.90;99160.61;1686455;82;20529;-81
2021/03/08 13:16:23;;;;;;;;;;;;;;;-0.29;79.57;99163.09;1685315;81;20193;-81
2021/03/08 13:18:54;;;;;;;;;;;;;;;-0.39;79.86;99163.50;1732135;81;20185;-81
2021/03/08 13:21:27;;;;;;;;;;;;;;;-0.43;80.16;99166.81;1703251;81;20265;-82
2021/03/08 13:23:59;;;;;;;;;;;;;;;-0.58;79.10;99183.64;1653137;83;20225;-81